sensor_id;sensor_type;location;lat;lon;timestamp;P1;durP1;ratioP1;P2;durP2;ratioP2
7173;SDS011;3628;48.654;8.932;2023-05-20T00:00:26;2.30;;;2.10;;
7173;SDS011;3628;48.654;8.932;2023-05-20T00:02:52;4.23;;;2.23;;
7173;SDS011;3628;48.654;8.932;2023-05-20T00:05:18;4.23;;;2.10;;
7173;SDS011;3628;48.654;8.932;2023-05-20T00:07:43;4.50;;;2.20;;
7173;SDS011;3628;48.654;8.932;2023-05-20T00:10:09;3.00;;;2.10;;
7173;SDS011;3628;48.654;8.932;2023-05-20T00:12:36;2.90;;;2.23;;
7173;SDS011;3628;48.654;8.932;2023-05-20T00:15:02;4.90;;;2.17;;
7173;SDS011;3628;48.654;8.932;2023-05-20T00:17:29;3.83;;;2.23;;
7173;SDS011;3628;48.654;8.932;2023-05-20T00:19:54;4.23;;;2.40;;
7173;SDS011;3628;48.654;8.932;2023-05-20T00:22:20;4.33;;;2.20;;
7173;SDS011;3628;48.654;8.932;2023-05-20T00:24:46;2.87;;;1.97;;
7173;SDS011;3628;48.654;8.932;2023-05-20T00:27:11;3.83;;;2.30;;
7173;SDS011;3628;48.654;8.932;2023-05-20T00:29:37;3.33;;;2.00;;
7173;SDS011;3628;48.654;8.932;2023-05-20T00:32:02;3.30;;;1.90;;
7173;SDS011;3628;48.654;8.932;2023-05-20T00:34:28;3.23;;;1.90;;
7173;SDS011;3628;48.654;8.932;2023-05-20T00:36:53;2.10;;;1.70;;
7173;SDS011;3628;48.654;8.932;2023-05-20T00:39:19;2.80;;;2.00;;
7173;SDS011;3628;48.654;8.932;2023-05-20T00:41:45;3.43;;;2.07;;
7173;SDS011;3628;48.654;8.932;2023-05-20T00:44:10;1.90;;;1.80;;
7173;SDS011;3628;48.654;8.932;2023-05-20T00:46:36;4.47;;;2.10;;
7173;SDS011;3628;48.654;8.932;2023-05-20T00:49:02;3.07;;;1.97;;
7173;SDS011;3628;48.654;8.932;2023-05-20T00:51:27;4.03;;;2.20;;
7173;SDS011;3628;48.654;8.932;2023-05-20T00:53:53;2.93;;;2.20;;
7173;SDS011;3628;48.654;8.932;2023-05-20T00:56:20;3.57;;;2.00;;
7173;SDS011;3628;48.654;8.932;2023-05-20T00:58:46;2.97;;;2.40;;
7173;SDS011;3628;48.654;8.932;2023-05-20T01:01:11;2.37;;;2.00;;
7173;SDS011;3628;48.654;8.932;2023-05-20T01:03:37;2.90;;;2.10;;
7173;SDS011;3628;48.654;8.932;2023-05-20T01:06:02;3.17;;;2.40;;
7173;SDS011;3628;48.654;8.932;2023-05-20T01:08:28;3.93;;;2.40;;
7173;SDS011;3628;48.654;8.932;2023-05-20T01:10:57;2.60;;;1.90;;
7173;SDS011;3628;48.654;8.932;2023-05-20T01:13:29;3.43;;;2.20;;
7173;SDS011;3628;48.654;8.932;2023-05-20T01:16:00;3.57;;;2.40;;
7173;SDS011;3628;48.654;8.932;2023-05-20T01:18:28;8.50;;;2.50;;
7173;SDS011;3628;48.654;8.932;2023-05-20T01:20:56;2.50;;;2.20;;
7173;SDS011;3628;48.654;8.932;2023-05-20T01:23:29;2.83;;;2.30;;
7173;SDS011;3628;48.654;8.932;2023-05-20T01:26:13;2.80;;;2.07;;
7173;SDS011;3628;48.654;8.932;2023-05-20T01:28:39;3.77;;;2.37;;
7173;SDS011;3628;48.654;8.932;2023-05-20T01:31:09;2.93;;;2.30;;
7173;SDS011;3628;48.654;8.932;2023-05-20T01:33:49;2.40;;;2.20;;
7173;SDS011;3628;48.654;8.932;2023-05-20T01:36:19;4.33;;;2.97;;
7173;SDS011;3628;48.654;8.932;2023-05-20T01:38:46;4.97;;;2.27;;
7173;SDS011;3628;48.654;8.932;2023-05-20T01:41:13;3.10;;;2.47;;
7173;SDS011;3628;48.654;8.932;2023-05-20T01:43:39;3.83;;;2.30;;
7173;SDS011;3628;48.654;8.932;2023-05-20T01:46:07;4.27;;;2.40;;
7173;SDS011;3628;48.654;8.932;2023-05-20T01:48:33;2.93;;;2.30;;
7173;SDS011;3628;48.654;8.932;2023-05-20T01:50:58;2.27;;;1.97;;
7173;SDS011;3628;48.654;8.932;2023-05-20T01:53:24;3.50;;;2.40;;
7173;SDS011;3628;48.654;8.932;2023-05-20T01:55:49;3.13;;;2.10;;
7173;SDS011;3628;48.654;8.932;2023-05-20T01:58:15;4.03;;;2.30;;
7173;SDS011;3628;48.654;8.932;2023-05-20T02:00:41;4.20;;;2.40;;
7173;SDS011;3628;48.654;8.932;2023-05-20T02:03:06;2.93;;;2.30;;
7173;SDS011;3628;48.654;8.932;2023-05-20T02:05:32;2.20;;;2.00;;
7173;SDS011;3628;48.654;8.932;2023-05-20T02:07:57;6.37;;;2.37;;
7173;SDS011;3628;48.654;8.932;2023-05-20T02:10:23;3.97;;;2.13;;
7173;SDS011;3628;48.654;8.932;2023-05-20T02:12:48;2.43;;;2.00;;
7173;SDS011;3628;48.654;8.932;2023-05-20T02:15:14;2.77;;;2.20;;
7173;SDS011;3628;48.654;8.932;2023-05-20T02:17:39;3.93;;;2.20;;
7173;SDS011;3628;48.654;8.932;2023-05-20T02:20:07;3.27;;;2.23;;
7173;SDS011;3628;48.654;8.932;2023-05-20T02:22:34;4.07;;;2.10;;
7173;SDS011;3628;48.654;8.932;2023-05-20T02:25:00;3.90;;;2.53;;
7173;SDS011;3628;48.654;8.932;2023-05-20T02:27:25;2.30;;;2.10;;
7173;SDS011;3628;48.654;8.932;2023-05-20T02:29:51;2.93;;;2.03;;
7173;SDS011;3628;48.654;8.932;2023-05-20T02:32:16;3.90;;;2.30;;
7173;SDS011;3628;48.654;8.932;2023-05-20T02:34:44;6.37;;;2.40;;
7173;SDS011;3628;48.654;8.932;2023-05-20T02:37:10;2.47;;;1.80;;
7173;SDS011;3628;48.654;8.932;2023-05-20T02:39:35;4.93;;;2.10;;
7173;SDS011;3628;48.654;8.932;2023-05-20T02:42:01;2.70;;;2.03;;
7173;SDS011;3628;48.654;8.932;2023-05-20T02:44:26;3.40;;;2.10;;
7173;SDS011;3628;48.654;8.932;2023-05-20T02:46:52;2.47;;;2.27;;
7173;SDS011;3628;48.654;8.932;2023-05-20T02:49:17;3.33;;;1.90;;
7173;SDS011;3628;48.654;8.932;2023-05-20T02:51:43;2.50;;;2.30;;
7173;SDS011;3628;48.654;8.932;2023-05-20T02:54:09;2.80;;;2.17;;
7173;SDS011;3628;48.654;8.932;2023-05-20T02:56:34;2.07;;;1.90;;
7173;SDS011;3628;48.654;8.932;2023-05-20T02:59:00;2.43;;;2.23;;
7173;SDS011;3628;48.654;8.932;2023-05-20T03:01:27;3.23;;;1.93;;
7173;SDS011;3628;48.654;8.932;2023-05-20T03:03:53;4.27;;;2.60;;
7173;SDS011;3628;48.654;8.932;2023-05-20T03:06:19;2.43;;;2.20;;
7173;SDS011;3628;48.654;8.932;2023-05-20T03:08:44;2.47;;;2.27;;
7173;SDS011;3628;48.654;8.932;2023-05-20T03:11:10;2.40;;;2.20;;
7173;SDS011;3628;48.654;8.932;2023-05-20T03:13:35;3.33;;;2.43;;
7173;SDS011;3628;48.654;8.932;2023-05-20T03:16:01;3.23;;;1.90;;
7173;SDS011;3628;48.654;8.932;2023-05-20T03:18:27;3.10;;;2.27;;
7173;SDS011;3628;48.654;8.932;2023-05-20T03:20:52;3.20;;;2.10;;
7173;SDS011;3628;48.654;8.932;2023-05-20T03:23:18;2.10;;;1.90;;
7173;SDS011;3628;48.654;8.932;2023-05-20T03:25:44;2.57;;;2.10;;
7173;SDS011;3628;48.654;8.932;2023-05-20T03:28:10;3.27;;;2.10;;
7173;SDS011;3628;48.654;8.932;2023-05-20T03:30:35;4.47;;;2.30;;
7173;SDS011;3628;48.654;8.932;2023-05-20T03:33:01;2.77;;;2.23;;
7173;SDS011;3628;48.654;8.932;2023-05-20T03:35:27;4.00;;;2.30;;
7173;SDS011;3628;48.654;8.932;2023-05-20T03:37:52;3.13;;;2.33;;
7173;SDS011;3628;48.654;8.932;2023-05-20T03:40:18;2.93;;;1.90;;
7173;SDS011;3628;48.654;8.932;2023-05-20T03:42:47;2.60;;;2.17;;
7173;SDS011;3628;48.654;8.932;2023-05-20T03:45:14;2.33;;;2.13;;
7173;SDS011;3628;48.654;8.932;2023-05-20T03:47:39;4.83;;;2.40;;
7173;SDS011;3628;48.654;8.932;2023-05-20T03:50:05;2.47;;;2.27;;
7173;SDS011;3628;48.654;8.932;2023-05-20T03:52:31;2.40;;;2.07;;
7173;SDS011;3628;48.654;8.932;2023-05-20T03:54:57;2.63;;;2.00;;
7173;SDS011;3628;48.654;8.932;2023-05-20T03:57:22;3.30;;;2.10;;
7173;SDS011;3628;48.654;8.932;2023-05-20T03:59:48;2.53;;;2.00;;
7173;SDS011;3628;48.654;8.932;2023-05-20T04:02:14;2.30;;;2.10;;
7173;SDS011;3628;48.654;8.932;2023-05-20T04:04:40;2.40;;;2.20;;
7173;SDS011;3628;48.654;8.932;2023-05-20T04:07:07;2.73;;;2.20;;
7173;SDS011;3628;48.654;8.932;2023-05-20T04:09:33;3.63;;;2.47;;
7173;SDS011;3628;48.654;8.932;2023-05-20T04:11:58;2.30;;;2.10;;
7173;SDS011;3628;48.654;8.932;2023-05-20T04:14:24;3.30;;;2.13;;
7173;SDS011;3628;48.654;8.932;2023-05-20T04:16:50;4.17;;;2.30;;
7173;SDS011;3628;48.654;8.932;2023-05-20T04:19:16;3.03;;;2.40;;
7173;SDS011;3628;48.654;8.932;2023-05-20T04:21:43;5.17;;;2.40;;
7173;SDS011;3628;48.654;8.932;2023-05-20T04:24:09;3.27;;;2.30;;
7173;SDS011;3628;48.654;8.932;2023-05-20T04:26:35;2.33;;;2.13;;
7173;SDS011;3628;48.654;8.932;2023-05-20T04:29:01;2.40;;;2.20;;
7173;SDS011;3628;48.654;8.932;2023-05-20T04:31:28;3.10;;;2.30;;
7173;SDS011;3628;48.654;8.932;2023-05-20T04:33:55;2.83;;;2.33;;
7173;SDS011;3628;48.654;8.932;2023-05-20T04:36:21;3.33;;;2.27;;
7173;SDS011;3628;48.654;8.932;2023-05-20T04:38:52;2.70;;;2.33;;
7173;SDS011;3628;48.654;8.932;2023-05-20T04:41:18;2.63;;;2.20;;
7173;SDS011;3628;48.654;8.932;2023-05-20T04:43:44;2.47;;;2.07;;
7173;SDS011;3628;48.654;8.932;2023-05-20T04:46:09;3.17;;;2.50;;
7173;SDS011;3628;48.654;8.932;2023-05-20T04:48:35;2.20;;;2.00;;
7173;SDS011;3628;48.654;8.932;2023-05-20T04:51:01;3.07;;;2.20;;
7173;SDS011;3628;48.654;8.932;2023-05-20T04:53:27;2.30;;;2.07;;
7173;SDS011;3628;48.654;8.932;2023-05-20T04:55:54;2.40;;;2.00;;
7173;SDS011;3628;48.654;8.932;2023-05-20T04:58:20;2.40;;;2.20;;
7173;SDS011;3628;48.654;8.932;2023-05-20T05:00:48;3.10;;;2.43;;
7173;SDS011;3628;48.654;8.932;2023-05-20T05:03:15;2.43;;;1.93;;
7173;SDS011;3628;48.654;8.932;2023-05-20T05:05:41;2.10;;;1.90;;
7173;SDS011;3628;48.654;8.932;2023-05-20T05:08:08;3.87;;;2.27;;
7173;SDS011;3628;48.654;8.932;2023-05-20T05:10:35;2.73;;;2.40;;
7173;SDS011;3628;48.654;8.932;2023-05-20T05:13:01;4.70;;;2.23;;
7173;SDS011;3628;48.654;8.932;2023-05-20T05:15:27;2.67;;;2.20;;
7173;SDS011;3628;48.654;8.932;2023-05-20T05:17:53;4.30;;;2.23;;
7173;SDS011;3628;48.654;8.932;2023-05-20T05:20:18;2.97;;;2.63;;
7173;SDS011;3628;48.654;8.932;2023-05-20T05:22:44;3.83;;;2.20;;
7173;SDS011;3628;48.654;8.932;2023-05-20T05:25:10;3.97;;;2.70;;
7173;SDS011;3628;48.654;8.932;2023-05-20T05:27:36;4.00;;;2.53;;
7173;SDS011;3628;48.654;8.932;2023-05-20T05:30:02;5.13;;;2.60;;
7173;SDS011;3628;48.654;8.932;2023-05-20T05:32:29;3.00;;;2.33;;
7173;SDS011;3628;48.654;8.932;2023-05-20T05:34:55;4.63;;;2.37;;
7173;SDS011;3628;48.654;8.932;2023-05-20T05:37:20;2.97;;;2.30;;
7173;SDS011;3628;48.654;8.932;2023-05-20T05:39:46;4.77;;;2.50;;
7173;SDS011;3628;48.654;8.932;2023-05-20T05:42:12;4.53;;;2.57;;
7173;SDS011;3628;48.654;8.932;2023-05-20T05:44:38;3.67;;;2.30;;
7173;SDS011;3628;48.654;8.932;2023-05-20T05:47:03;2.80;;;2.20;;
7173;SDS011;3628;48.654;8.932;2023-05-20T05:49:30;2.40;;;2.00;;
7173;SDS011;3628;48.654;8.932;2023-05-20T05:51:56;2.70;;;2.23;;
7173;SDS011;3628;48.654;8.932;2023-05-20T05:54:21;3.77;;;2.80;;
7173;SDS011;3628;48.654;8.932;2023-05-20T05:56:47;3.27;;;2.53;;
7173;SDS011;3628;48.654;8.932;2023-05-20T05:59:14;4.73;;;3.10;;
7173;SDS011;3628;48.654;8.932;2023-05-20T06:01:40;4.77;;;2.97;;
7173;SDS011;3628;48.654;8.932;2023-05-20T06:04:05;2.93;;;2.40;;
7173;SDS011;3628;48.654;8.932;2023-05-20T06:06:32;3.10;;;2.70;;
7173;SDS011;3628;48.654;8.932;2023-05-20T06:08:58;2.53;;;2.33;;
7173;SDS011;3628;48.654;8.932;2023-05-20T06:11:23;2.73;;;2.20;;
7173;SDS011;3628;48.654;8.932;2023-05-20T06:13:50;2.77;;;2.03;;
7173;SDS011;3628;48.654;8.932;2023-05-20T06:16:16;3.73;;;2.23;;
7173;SDS011;3628;48.654;8.932;2023-05-20T06:18:41;2.70;;;2.43;;
7173;SDS011;3628;48.654;8.932;2023-05-20T06:21:07;2.73;;;2.23;;
7173;SDS011;3628;48.654;8.932;2023-05-20T06:23:33;4.23;;;1.90;;
7173;SDS011;3628;48.654;8.932;2023-05-20T06:25:59;3.27;;;2.20;;
7173;SDS011;3628;48.654;8.932;2023-05-20T06:28:25;3.07;;;2.40;;
7173;SDS011;3628;48.654;8.932;2023-05-20T06:30:52;2.63;;;2.43;;
7173;SDS011;3628;48.654;8.932;2023-05-20T06:33:18;2.70;;;2.40;;
7173;SDS011;3628;48.654;8.932;2023-05-20T06:35:45;2.83;;;2.43;;
7173;SDS011;3628;48.654;8.932;2023-05-20T06:38:10;3.43;;;2.90;;
7173;SDS011;3628;48.654;8.932;2023-05-20T06:40:36;3.93;;;2.70;;
7173;SDS011;3628;48.654;8.932;2023-05-20T06:43:01;3.63;;;2.50;;
7173;SDS011;3628;48.654;8.932;2023-05-20T06:45:27;2.77;;;2.43;;
7173;SDS011;3628;48.654;8.932;2023-05-20T06:47:53;4.23;;;2.20;;
7173;SDS011;3628;48.654;8.932;2023-05-20T06:50:18;4.13;;;2.90;;
7173;SDS011;3628;48.654;8.932;2023-05-20T06:52:44;2.13;;;1.93;;
7173;SDS011;3628;48.654;8.932;2023-05-20T06:55:10;2.90;;;2.60;;
7173;SDS011;3628;48.654;8.932;2023-05-20T06:57:35;3.10;;;2.70;;
7173;SDS011;3628;48.654;8.932;2023-05-20T07:00:02;3.67;;;2.80;;
7173;SDS011;3628;48.654;8.932;2023-05-20T07:02:29;3.70;;;2.90;;
7173;SDS011;3628;48.654;8.932;2023-05-20T07:04:57;2.70;;;2.50;;
7173;SDS011;3628;48.654;8.932;2023-05-20T07:07:22;3.27;;;2.73;;
7173;SDS011;3628;48.654;8.932;2023-05-20T07:09:48;2.93;;;2.63;;
7173;SDS011;3628;48.654;8.932;2023-05-20T07:12:13;3.43;;;2.93;;
7173;SDS011;3628;48.654;8.932;2023-05-20T07:14:39;3.03;;;2.60;;
7173;SDS011;3628;48.654;8.932;2023-05-20T07:17:05;4.53;;;2.97;;
7173;SDS011;3628;48.654;8.932;2023-05-20T07:19:30;3.73;;;3.00;;
7173;SDS011;3628;48.654;8.932;2023-05-20T07:21:57;3.67;;;3.10;;
7173;SDS011;3628;48.654;8.932;2023-05-20T07:24:23;6.20;;;2.90;;
7173;SDS011;3628;48.654;8.932;2023-05-20T07:26:48;3.90;;;2.80;;
7173;SDS011;3628;48.654;8.932;2023-05-20T07:29:14;3.60;;;2.83;;
7173;SDS011;3628;48.654;8.932;2023-05-20T07:31:40;3.23;;;2.53;;
7173;SDS011;3628;48.654;8.932;2023-05-20T07:34:05;4.57;;;2.63;;
7173;SDS011;3628;48.654;8.932;2023-05-20T07:36:31;3.30;;;2.90;;
7173;SDS011;3628;48.654;8.932;2023-05-20T07:38:56;3.33;;;2.63;;
7173;SDS011;3628;48.654;8.932;2023-05-20T07:41:22;3.30;;;3.00;;
7173;SDS011;3628;48.654;8.932;2023-05-20T07:43:48;3.37;;;3.00;;
7173;SDS011;3628;48.654;8.932;2023-05-20T07:46:14;3.43;;;3.07;;
7173;SDS011;3628;48.654;8.932;2023-05-20T07:48:40;3.93;;;2.93;;
7173;SDS011;3628;48.654;8.932;2023-05-20T07:51:06;4.57;;;2.60;;
7173;SDS011;3628;48.654;8.932;2023-05-20T07:53:31;3.23;;;2.80;;
7173;SDS011;3628;48.654;8.932;2023-05-20T07:55:57;3.17;;;2.93;;
7173;SDS011;3628;48.654;8.932;2023-05-20T07:58:23;3.33;;;3.03;;
7173;SDS011;3628;48.654;8.932;2023-05-20T08:00:49;4.70;;;2.97;;
7173;SDS011;3628;48.654;8.932;2023-05-20T08:03:15;3.13;;;2.80;;
7173;SDS011;3628;48.654;8.932;2023-05-20T08:05:41;2.70;;;2.50;;
7173;SDS011;3628;48.654;8.932;2023-05-20T08:08:06;3.27;;;2.97;;
7173;SDS011;3628;48.654;8.932;2023-05-20T08:10:34;3.37;;;2.87;;
7173;SDS011;3628;48.654;8.932;2023-05-20T08:13:00;4.43;;;3.20;;
7173;SDS011;3628;48.654;8.932;2023-05-20T08:15:26;4.70;;;3.17;;
7173;SDS011;3628;48.654;8.932;2023-05-20T08:17:51;3.60;;;2.80;;
7173;SDS011;3628;48.654;8.932;2023-05-20T08:20:17;4.70;;;3.03;;
7173;SDS011;3628;48.654;8.932;2023-05-20T08:22:42;3.58;;;2.83;;
7173;SDS011;3628;48.654;8.932;2023-05-20T08:25:08;3.70;;;3.00;;
7173;SDS011;3628;48.654;8.932;2023-05-20T08:27:36;3.20;;;2.90;;
7173;SDS011;3628;48.654;8.932;2023-05-20T08:30:03;3.77;;;2.80;;
7173;SDS011;3628;48.654;8.932;2023-05-20T08:32:29;5.40;;;2.83;;
7173;SDS011;3628;48.654;8.932;2023-05-20T08:34:55;3.67;;;2.83;;
7173;SDS011;3628;48.654;8.932;2023-05-20T08:37:21;3.40;;;3.10;;
7173;SDS011;3628;48.654;8.932;2023-05-20T08:39:46;3.30;;;2.97;;
7173;SDS011;3628;48.654;8.932;2023-05-20T08:42:13;3.00;;;2.70;;
7173;SDS011;3628;48.654;8.932;2023-05-20T08:44:40;3.53;;;2.60;;
7173;SDS011;3628;48.654;8.932;2023-05-20T08:47:07;4.13;;;2.83;;
7173;SDS011;3628;48.654;8.932;2023-05-20T08:49:34;3.30;;;2.97;;
7173;SDS011;3628;48.654;8.932;2023-05-20T08:51:59;3.25;;;2.95;;
7173;SDS011;3628;48.654;8.932;2023-05-20T08:54:26;4.07;;;2.70;;
7173;SDS011;3628;48.654;8.932;2023-05-20T08:57:04;2.65;;;2.28;;
7173;SDS011;3628;48.654;8.932;2023-05-20T08:59:29;2.58;;;2.38;;
7173;SDS011;3628;48.654;8.932;2023-05-20T09:01:56;3.13;;;2.40;;
7173;SDS011;3628;48.654;8.932;2023-05-20T09:04:21;4.07;;;2.70;;
7173;SDS011;3628;48.654;8.932;2023-05-20T09:06:49;3.03;;;2.47;;
7173;SDS011;3628;48.654;8.932;2023-05-20T09:09:15;2.63;;;2.42;;
7173;SDS011;3628;48.654;8.932;2023-05-20T09:11:41;4.82;;;2.65;;
7173;SDS011;3628;48.654;8.932;2023-05-20T09:14:07;4.35;;;2.75;;
7173;SDS011;3628;48.654;8.932;2023-05-20T09:16:33;2.97;;;2.60;;
7173;SDS011;3628;48.654;8.932;2023-05-20T09:18:59;2.63;;;2.40;;
7173;SDS011;3628;48.654;8.932;2023-05-20T09:21:25;2.78;;;2.25;;
7173;SDS011;3628;48.654;8.932;2023-05-20T09:23:52;5.05;;;2.60;;
7173;SDS011;3628;48.654;8.932;2023-05-20T09:26:18;3.00;;;2.70;;
7173;SDS011;3628;48.654;8.932;2023-05-20T09:28:44;2.67;;;2.47;;
7173;SDS011;3628;48.654;8.932;2023-05-20T09:31:10;3.88;;;2.38;;
7173;SDS011;3628;48.654;8.932;2023-05-20T09:33:38;3.15;;;2.40;;
7173;SDS011;3628;48.654;8.932;2023-05-20T09:36:07;3.58;;;2.67;;
7173;SDS011;3628;48.654;8.932;2023-05-20T09:38:35;2.80;;;2.28;;
7173;SDS011;3628;48.654;8.932;2023-05-20T09:41:10;4.80;;;2.60;;
7173;SDS011;3628;48.654;8.932;2023-05-20T09:43:37;2.97;;;2.33;;
7173;SDS011;3628;48.654;8.932;2023-05-20T09:46:04;3.70;;;2.70;;
7173;SDS011;3628;48.654;8.932;2023-05-20T09:48:30;3.70;;;2.70;;
7173;SDS011;3628;48.654;8.932;2023-05-20T09:50:56;3.67;;;2.80;;
7173;SDS011;3628;48.654;8.932;2023-05-20T09:53:22;3.10;;;2.80;;
7173;SDS011;3628;48.654;8.932;2023-05-20T09:55:53;3.30;;;2.50;;
7173;SDS011;3628;48.654;8.932;2023-05-20T09:58:19;3.08;;;2.50;;
7173;SDS011;3628;48.654;8.932;2023-05-20T10:00:46;3.08;;;2.78;;
7173;SDS011;3628;48.654;8.932;2023-05-20T10:03:12;2.75;;;2.33;;
7173;SDS011;3628;48.654;8.932;2023-05-20T10:05:39;3.30;;;3.00;;
7173;SDS011;3628;48.654;8.932;2023-05-20T10:10:57;2.47;;;2.28;;
7173;SDS011;3628;48.654;8.932;2023-05-20T10:19:38;3.45;;;2.20;;
7173;SDS011;3628;48.654;8.932;2023-05-20T10:22:04;3.47;;;2.53;;
7173;SDS011;3628;48.654;8.932;2023-05-20T10:24:36;2.85;;;2.55;;
7173;SDS011;3628;48.654;8.932;2023-05-20T10:27:11;3.65;;;2.60;;
7173;SDS011;3628;48.654;8.932;2023-05-20T10:29:43;3.15;;;2.85;;
7173;SDS011;3628;48.654;8.932;2023-05-20T10:32:10;2.50;;;2.30;;
7173;SDS011;3628;48.654;8.932;2023-05-20T10:34:48;3.13;;;2.50;;
7173;SDS011;3628;48.654;8.932;2023-05-20T10:37:26;2.85;;;2.40;;
7173;SDS011;3628;48.654;8.932;2023-05-20T10:40:04;5.25;;;2.70;;
7173;SDS011;3628;48.654;8.932;2023-05-20T10:42:31;2.72;;;2.20;;
7173;SDS011;3628;48.654;8.932;2023-05-20T10:44:57;2.65;;;2.45;;
7173;SDS011;3628;48.654;8.932;2023-05-20T10:47:22;3.80;;;2.83;;
7173;SDS011;3628;48.654;8.932;2023-05-20T10:49:48;3.28;;;2.78;;
7173;SDS011;3628;48.654;8.932;2023-05-20T10:52:13;2.72;;;2.13;;
7173;SDS011;3628;48.654;8.932;2023-05-20T10:55:03;2.60;;;2.40;;
7173;SDS011;3628;48.654;8.932;2023-05-20T10:57:29;2.25;;;2.05;;
7173;SDS011;3628;48.654;8.932;2023-05-20T10:59:55;3.22;;;2.33;;
7173;SDS011;3628;48.654;8.932;2023-05-20T11:02:20;2.63;;;2.42;;
7173;SDS011;3628;48.654;8.932;2023-05-20T11:04:55;2.60;;;2.40;;
7173;SDS011;3628;48.654;8.932;2023-05-20T11:07:25;2.78;;;2.50;;
7173;SDS011;3628;48.654;8.932;2023-05-20T11:09:52;3.10;;;2.60;;
7173;SDS011;3628;48.654;8.932;2023-05-20T11:12:20;3.30;;;2.33;;
7173;SDS011;3628;48.654;8.932;2023-05-20T11:14:47;2.78;;;2.58;;
7173;SDS011;3628;48.654;8.932;2023-05-20T11:17:13;4.63;;;2.90;;
7173;SDS011;3628;48.654;8.932;2023-05-20T11:19:40;3.38;;;2.10;;
7173;SDS011;3628;48.654;8.932;2023-05-20T11:22:08;2.58;;;2.38;;
7173;SDS011;3628;48.654;8.932;2023-05-20T11:24:34;3.83;;;2.08;;
7173;SDS011;3628;48.654;8.932;2023-05-20T11:27:01;2.53;;;2.33;;
7173;SDS011;3628;48.654;8.932;2023-05-20T11:29:27;3.72;;;2.58;;
7173;SDS011;3628;48.654;8.932;2023-05-20T11:31:53;3.70;;;2.33;;
7173;SDS011;3628;48.654;8.932;2023-05-20T11:34:22;3.47;;;2.58;;
7173;SDS011;3628;48.654;8.932;2023-05-20T11:36:55;2.50;;;2.20;;
7173;SDS011;3628;48.654;8.932;2023-05-20T11:39:21;2.45;;;2.20;;
7173;SDS011;3628;48.654;8.932;2023-05-20T11:41:47;2.92;;;2.60;;
7173;SDS011;3628;48.654;8.932;2023-05-20T11:44:12;2.35;;;2.15;;
7173;SDS011;3628;48.654;8.932;2023-05-20T11:46:45;3.42;;;2.30;;
7173;SDS011;3628;48.654;8.932;2023-05-20T11:49:11;3.15;;;2.20;;
7173;SDS011;3628;48.654;8.932;2023-05-20T11:51:38;2.40;;;2.20;;
7173;SDS011;3628;48.654;8.932;2023-05-20T11:54:05;2.63;;;2.40;;
7173;SDS011;3628;48.654;8.932;2023-05-20T11:56:35;2.67;;;2.13;;
7173;SDS011;3628;48.654;8.932;2023-05-20T11:59:02;5.10;;;2.30;;
7173;SDS011;3628;48.654;8.932;2023-05-20T12:01:34;2.30;;;2.10;;
7173;SDS011;3628;48.654;8.932;2023-05-20T12:04:06;2.30;;;2.10;;
7173;SDS011;3628;48.654;8.932;2023-05-20T12:06:33;2.75;;;2.53;;
7173;SDS011;3628;48.654;8.932;2023-05-20T12:09:01;2.30;;;2.10;;
7173;SDS011;3628;48.654;8.932;2023-05-20T12:11:34;2.53;;;2.17;;
7173;SDS011;3628;48.654;8.932;2023-05-20T12:14:01;4.70;;;2.70;;
7173;SDS011;3628;48.654;8.932;2023-05-20T12:16:28;2.20;;;2.00;;
7173;SDS011;3628;48.654;8.932;2023-05-20T12:18:55;4.72;;;2.15;;
7173;SDS011;3628;48.654;8.932;2023-05-20T12:21:22;3.72;;;2.10;;
7173;SDS011;3628;48.654;8.932;2023-05-20T12:23:47;2.30;;;2.17;;
7173;SDS011;3628;48.654;8.932;2023-05-20T12:26:13;2.75;;;2.42;;
7173;SDS011;3628;48.654;8.932;2023-05-20T12:28:38;2.58;;;2.30;;
7173;SDS011;3628;48.654;8.932;2023-05-20T12:31:04;2.40;;;2.20;;
7173;SDS011;3628;48.654;8.932;2023-05-20T12:33:30;3.05;;;2.50;;
7173;SDS011;3628;48.654;8.932;2023-05-20T12:35:55;2.63;;;2.35;;
7173;SDS011;3628;48.654;8.932;2023-05-20T12:38:21;2.30;;;2.10;;
7173;SDS011;3628;48.654;8.932;2023-05-20T12:40:47;2.65;;;1.92;;
7173;SDS011;3628;48.654;8.932;2023-05-20T12:43:12;2.47;;;2.28;;
7173;SDS011;3628;48.654;8.932;2023-05-20T12:45:38;2.63;;;2.22;;
7173;SDS011;3628;48.654;8.932;2023-05-20T12:48:03;2.30;;;2.10;;
7173;SDS011;3628;48.654;8.932;2023-05-20T12:50:31;2.90;;;2.10;;
7173;SDS011;3628;48.654;8.932;2023-05-20T12:52:56;2.10;;;2.00;;
7173;SDS011;3628;48.654;8.932;2023-05-20T12:55:22;2.20;;;2.03;;
7173;SDS011;3628;48.654;8.932;2023-05-20T12:57:47;3.22;;;2.10;;
7173;SDS011;3628;48.654;8.932;2023-05-20T13:00:14;4.97;;;2.33;;
7173;SDS011;3628;48.654;8.932;2023-05-20T13:02:40;2.20;;;2.08;;
7173;SDS011;3628;48.654;8.932;2023-05-20T13:05:06;2.40;;;2.20;;
7173;SDS011;3628;48.654;8.932;2023-05-20T13:07:33;2.38;;;2.17;;
7173;SDS011;3628;48.654;8.932;2023-05-20T13:09:58;3.70;;;2.50;;
7173;SDS011;3628;48.654;8.932;2023-05-20T13:12:24;2.30;;;2.10;;
7173;SDS011;3628;48.654;8.932;2023-05-20T13:14:50;2.33;;;2.13;;
7173;SDS011;3628;48.654;8.932;2023-05-20T13:17:16;2.35;;;1.75;;
7173;SDS011;3628;48.654;8.932;2023-05-20T13:19:42;2.67;;;2.00;;
7173;SDS011;3628;48.654;8.932;2023-05-20T13:22:09;3.28;;;1.98;;
7173;SDS011;3628;48.654;8.932;2023-05-20T13:24:35;2.90;;;2.20;;
7173;SDS011;3628;48.654;8.932;2023-05-20T13:27:01;2.30;;;2.10;;
7173;SDS011;3628;48.654;8.932;2023-05-20T13:29:27;2.92;;;2.10;;
7173;SDS011;3628;48.654;8.932;2023-05-20T13:31:52;2.30;;;2.10;;
7173;SDS011;3628;48.654;8.932;2023-05-20T13:34:18;2.30;;;2.00;;
7173;SDS011;3628;48.654;8.932;2023-05-20T13:36:44;2.28;;;2.08;;
7173;SDS011;3628;48.654;8.932;2023-05-20T13:39:11;2.20;;;2.00;;
7173;SDS011;3628;48.654;8.932;2023-05-20T13:41:37;3.42;;;2.00;;
7173;SDS011;3628;48.654;8.932;2023-05-20T13:44:02;2.38;;;1.88;;
7173;SDS011;3628;48.654;8.932;2023-05-20T13:46:28;3.08;;;1.88;;
7173;SDS011;3628;48.654;8.932;2023-05-20T13:48:54;1.90;;;1.80;;
7173;SDS011;3628;48.654;8.932;2023-05-20T13:51:19;1.60;;;1.50;;
7173;SDS011;3628;48.654;8.932;2023-05-20T13:53:45;2.00;;;1.67;;
7173;SDS011;3628;48.654;8.932;2023-05-20T13:56:11;3.10;;;2.05;;
7173;SDS011;3628;48.654;8.932;2023-05-20T13:58:36;2.33;;;2.00;;
7173;SDS011;3628;48.654;8.932;2023-05-20T14:01:02;2.35;;;2.15;;
7173;SDS011;3628;48.654;8.932;2023-05-20T14:03:29;2.30;;;2.10;;
7173;SDS011;3628;48.654;8.932;2023-05-20T14:05:56;2.33;;;2.13;;
7173;SDS011;3628;48.654;8.932;2023-05-20T14:08:23;2.00;;;1.80;;
7173;SDS011;3628;48.654;8.932;2023-05-20T14:10:48;3.13;;;2.28;;
7173;SDS011;3628;48.654;8.932;2023-05-20T14:13:18;1.92;;;1.80;;
7173;SDS011;3628;48.654;8.932;2023-05-20T14:15:47;1.77;;;1.67;;
7173;SDS011;3628;48.654;8.932;2023-05-20T14:18:14;2.53;;;1.85;;
7173;SDS011;3628;48.654;8.932;2023-05-20T14:20:40;3.58;;;1.88;;
7173;SDS011;3628;48.654;8.932;2023-05-20T14:23:06;2.17;;;1.92;;
7173;SDS011;3628;48.654;8.932;2023-05-20T14:25:31;1.80;;;1.70;;
7173;SDS011;3628;48.654;8.932;2023-05-20T14:27:57;2.05;;;1.80;;
7173;SDS011;3628;48.654;8.932;2023-05-20T14:30:23;2.63;;;1.80;;
7173;SDS011;3628;48.654;8.932;2023-05-20T14:32:49;3.55;;;2.00;;
7173;SDS011;3628;48.654;8.932;2023-05-20T14:35:14;3.10;;;1.90;;
7173;SDS011;3628;48.654;8.932;2023-05-20T14:37:40;3.97;;;2.05;;
7173;SDS011;3628;48.654;8.932;2023-05-20T14:40:06;2.53;;;1.90;;
7173;SDS011;3628;48.654;8.932;2023-05-20T14:42:32;1.90;;;1.75;;
7173;SDS011;3628;48.654;8.932;2023-05-20T14:44:58;1.80;;;1.70;;
7173;SDS011;3628;48.654;8.932;2023-05-20T14:47:23;2.08;;;1.83;;
7173;SDS011;3628;48.654;8.932;2023-05-20T14:49:50;2.10;;;1.95;;
7173;SDS011;3628;48.654;8.932;2023-05-20T14:52:16;3.85;;;1.95;;
7173;SDS011;3628;48.654;8.932;2023-05-20T14:54:42;2.03;;;1.70;;
7173;SDS011;3628;48.654;8.932;2023-05-20T14:57:08;4.10;;;2.45;;
7173;SDS011;3628;48.654;8.932;2023-05-20T14:59:33;2.08;;;1.88;;
7173;SDS011;3628;48.654;8.932;2023-05-20T15:01:59;1.85;;;1.73;;
7173;SDS011;3628;48.654;8.932;2023-05-20T15:04:25;2.63;;;2.08;;
7173;SDS011;3628;48.654;8.932;2023-05-20T15:06:51;4.70;;;2.63;;
7173;SDS011;3628;48.654;8.932;2023-05-20T15:09:17;4.45;;;2.83;;
7173;SDS011;3628;48.654;8.932;2023-05-20T15:11:43;3.25;;;2.13;;
7173;SDS011;3628;48.654;8.932;2023-05-20T15:14:09;4.55;;;2.85;;
7173;SDS011;3628;48.654;8.932;2023-05-20T15:16:34;1.80;;;1.70;;
7173;SDS011;3628;48.654;8.932;2023-05-20T15:19:00;3.05;;;1.90;;